createdAt,value
2019-01-02T00:00:33.921Z,4.89
2019-01-02T00:03:03.793Z,4.87
2019-01-02T00:05:33.974Z,4.91
2019-01-02T00:08:03.781Z,4.91
2019-01-02T00:10:33.930Z,4.99
2019-01-02T00:13:03.749Z,4.99
2019-01-02T00:15:33.893Z,5.14
2019-01-02T00:18:03.672Z,5.13
2019-01-02T00:20:33.441Z,5.19
2019-01-02T00:23:03.237Z,5.23
2019-01-02T00:25:33.164Z,5.16
2019-01-02T00:28:03.349Z,5.06
2019-01-02T00:30:33.112Z,5.14
2019-01-02T00:33:03.266Z,5.20
2019-01-02T00:35:33.048Z,5.18
2019-01-02T00:38:03.197Z,5.29
2019-01-02T00:40:33.013Z,5.32
2019-01-02T00:43:02.803Z,5.42
2019-01-02T00:45:32.569Z,5.45
2019-01-02T00:48:02.359Z,5.40
2019-01-02T00:50:32.430Z,5.46
2019-01-02T00:53:02.606Z,5.31
2019-01-02T00:55:33.587Z,5.39
2019-01-02T00:58:03.375Z,5.33
2019-01-02T01:00:33.427Z,5.35
2019-01-02T01:03:03.281Z,5.44
2019-01-02T01:05:33.057Z,5.33
2019-01-02T01:08:02.822Z,5.42
2019-01-02T01:10:32.638Z,5.24
2019-01-02T01:13:02.411Z,5.29
2019-01-02T01:15:32.205Z,5.13
2019-01-02T01:18:01.973Z,5.21
2019-01-02T01:20:32.078Z,5.10
2019-01-02T01:23:01.855Z,5.37
2019-01-02T01:25:32.020Z,5.47
2019-01-02T01:28:01.803Z,5.48
2019-01-02T01:30:31.708Z,5.43
2019-01-02T01:33:02.068Z,5.49
2019-01-02T01:35:31.855Z,5.45
2019-01-02T01:38:01.647Z,5.53
2019-01-02T01:40:31.418Z,5.48
2019-01-02T01:43:01.236Z,5.52
2019-01-02T01:45:31.611Z,5.49
2019-01-02T01:48:01.559Z,5.56
2019-01-02T01:50:32.047Z,5.56
2019-01-02T01:53:01.866Z,5.62
2019-01-02T01:55:31.652Z,5.61
2019-01-02T01:58:01.814Z,5.54
2019-01-02T02:00:31.621Z,5.60
2019-01-02T02:03:01.354Z,5.61
2019-01-02T02:05:31.526Z,5.49
2019-01-02T02:08:01.546Z,5.58
2019-01-02T02:10:31.334Z,5.56
2019-01-02T02:13:01.489Z,5.50
2019-01-02T02:15:31.301Z,5.50
2019-01-02T02:18:01.770Z,5.42
2019-01-02T02:20:31.543Z,5.46
2019-01-02T02:23:01.349Z,5.35
2019-01-02T02:25:31.398Z,5.33
2019-01-02T02:28:01.533Z,5.31
2019-01-02T02:30:31.296Z,5.27
2019-01-02T02:33:01.203Z,5.26
2019-01-02T02:35:31.042Z,5.24
2019-01-02T02:38:01.127Z,5.17
2019-01-02T02:40:30.887Z,5.05
2019-01-02T02:43:00.679Z,5.12
2019-01-02T02:45:31.380Z,5.13
2019-01-02T02:48:01.550Z,5.14
2019-01-02T02:50:32.120Z,5.19
2019-01-02T02:53:02.378Z,5.18
2019-01-02T02:55:32.463Z,5.25
2019-01-02T02:58:02.636Z,5.22
2019-01-02T03:00:32.426Z,5.28
2019-01-02T03:03:02.464Z,5.40
2019-01-02T03:05:32.270Z,5.28
2019-01-02T03:08:02.034Z,5.23
2019-01-02T03:10:31.990Z,5.31
2019-01-02T03:13:02.074Z,5.26
2019-01-02T03:15:32.142Z,5.12
2019-01-02T03:18:02.194Z,5.03
2019-01-02T03:20:31.954Z,5.00
2019-01-02T03:23:01.836Z,5.06
2019-01-02T03:25:32.097Z,5.06
2019-01-02T03:28:02.366Z,5.25
2019-01-02T03:30:32.503Z,5.24
2019-01-02T03:33:02.775Z,5.21
2019-01-02T03:35:33.429Z,5.26
2019-01-02T03:38:03.209Z,5.31
2019-01-02T03:40:32.988Z,5.31
2019-01-02T03:43:02.783Z,5.28
2019-01-02T03:45:32.563Z,5.18
2019-01-02T03:48:02.342Z,5.14
2019-01-02T03:50:32.106Z,5.09
2019-01-02T03:53:02.051Z,5.08
2019-01-02T03:55:31.830Z,5.17
2019-01-02T03:58:01.588Z,5.19
2019-01-02T04:00:31.429Z,5.13
2019-01-02T04:03:01.213Z,5.25
2019-01-02T04:05:31.003Z,5.27
2019-01-02T04:08:02.684Z,5.36
2019-01-02T04:10:32.475Z,5.38
2019-01-02T04:13:02.233Z,5.37
2019-01-02T04:15:32.021Z,5.32
2019-01-02T04:18:02.103Z,5.36
2019-01-02T04:20:31.880Z,5.35
2019-01-02T04:23:01.761Z,5.41
2019-01-02T04:25:31.575Z,5.44
2019-01-02T04:28:01.368Z,5.43
2019-01-02T04:30:31.160Z,5.48
2019-01-02T04:33:00.952Z,5.51
2019-01-02T04:35:30.716Z,5.42
2019-01-02T04:38:00.843Z,5.49
2019-01-02T04:40:30.624Z,5.41
2019-01-02T04:43:00.418Z,5.39
2019-01-02T04:45:30.217Z,5.46
2019-01-02T04:47:59.985Z,5.44
2019-01-02T04:50:29.782Z,5.47
2019-01-02T04:52:59.575Z,5.44
2019-01-02T04:55:29.381Z,5.56
2019-01-02T04:57:59.152Z,5.52
2019-01-02T05:00:28.968Z,5.45
2019-01-02T05:02:58.755Z,5.44
2019-01-02T05:05:28.537Z,5.31
2019-01-02T05:07:58.520Z,5.40
2019-01-02T05:10:28.281Z,5.41
2019-01-02T05:12:58.071Z,5.51
2019-01-02T05:15:27.829Z,5.51
2019-01-02T05:17:57.648Z,5.57
2019-01-02T05:20:27.477Z,5.54
2019-01-02T05:22:57.249Z,5.53
2019-01-02T05:25:27.027Z,5.57
2019-01-02T05:27:56.905Z,5.56
2019-01-02T05:30:26.693Z,5.58
2019-01-02T05:32:56.492Z,5.59
2019-01-02T05:35:26.262Z,5.57
2019-01-02T05:37:56.056Z,5.54
2019-01-02T05:40:25.821Z,5.48
2019-01-02T05:42:55.585Z,5.55
2019-01-02T05:45:25.399Z,5.53
2019-01-02T05:47:55.174Z,5.53
2019-01-02T05:50:24.992Z,5.30
2019-01-02T05:52:54.753Z,5.27
2019-01-02T05:55:24.528Z,5.24
2019-01-02T05:57:54.289Z,5.15
2019-01-02T06:00:24.083Z,5.15
2019-01-02T06:02:53.866Z,5.08
2019-01-02T06:05:23.671Z,4.93
2019-01-02T06:07:53.424Z,4.95
2019-01-02T06:10:23.589Z,4.88
2019-01-02T06:12:53.446Z,4.75
2019-01-02T06:15:23.234Z,4.75
2019-01-02T06:17:53.075Z,4.63
2019-01-02T06:20:22.839Z,4.74
2019-01-02T06:22:52.725Z,4.87
2019-01-02T06:25:22.514Z,4.87
2019-01-02T06:27:52.258Z,4.89
2019-01-02T06:30:22.059Z,4.99
2019-01-02T06:32:52.043Z,4.92
2019-01-02T06:35:21.848Z,5.09
2019-01-02T06:37:51.605Z,5.02
2019-01-02T06:40:21.407Z,5.04
2019-01-02T06:42:51.173Z,5.10
2019-01-02T06:45:20.951Z,5.12
2019-01-02T06:47:50.743Z,5.03
2019-01-02T06:50:22.504Z,5.07
2019-01-02T06:52:52.304Z,4.93
2019-01-02T06:55:22.111Z,4.78
2019-01-02T06:57:51.852Z,4.70
2019-01-02T07:00:28.622Z,4.70
2019-01-02T07:02:58.373Z,4.57
2019-01-02T07:05:28.135Z,4.43
2019-01-02T07:07:57.924Z,4.62
2019-01-02T07:10:27.677Z,4.82
2019-01-02T07:12:57.453Z,4.82
2019-01-02T07:15:27.228Z,4.76
2019-01-02T07:17:57.052Z,4.84
2019-01-02T07:20:27.253Z,4.88
2019-01-02T07:22:57.136Z,4.72
2019-01-02T07:25:28.771Z,4.73
2019-01-02T07:27:58.532Z,4.74
2019-01-02T07:30:28.422Z,4.83
2019-01-02T07:32:58.174Z,4.96
2019-01-02T07:36:06.338Z,4.90
2019-01-02T07:38:45.985Z,4.93
2019-01-02T07:41:54.858Z,4.79
2019-01-02T07:44:47.207Z,4.97
2019-01-02T07:47:54.967Z,4.92
2019-01-02T07:50:41.248Z,4.82
2019-01-02T07:53:30.570Z,5.07
2019-01-02T07:56:45.699Z,5.10
2019-01-02T07:59:40.679Z,5.10
2019-01-02T08:02:35.957Z,5.09
2019-01-02T08:05:21.876Z,5.14
2019-01-02T08:08:29.887Z,5.24
2019-01-02T08:11:37.194Z,5.29
2019-01-02T08:14:32.902Z,5.16
2019-01-02T08:17:21.712Z,5.23
2019-01-02T08:20:38.547Z,5.32
2019-01-02T08:23:18.879Z,5.33
2019-01-02T08:26:10.674Z,5.21
2019-01-02T08:29:17.023Z,5.34
2019-01-02T08:32:24.888Z,5.31
2019-01-02T08:35:02.061Z,5.37
2019-01-02T08:38:02.086Z,5.45
2019-01-02T08:41:03.828Z,5.47
2019-01-02T08:44:05.941Z,5.27
2019-01-02T08:46:48.995Z,5.52
2019-01-02T08:49:45.783Z,5.39
2019-01-02T08:52:28.937Z,5.53
2019-01-02T08:55:30.021Z,5.61
2019-01-02T08:58:19.432Z,5.61
2019-01-02T09:01:20.103Z,5.72
2019-01-02T09:04:20.084Z,5.79
2019-01-02T09:07:08.753Z,5.80
2019-01-02T09:10:19.544Z,5.94
2019-01-02T09:13:13.256Z,6.14
2019-01-02T09:16:07.092Z,5.92
2019-01-02T09:18:53.683Z,5.92
2019-01-02T09:21:43.003Z,5.92
2019-01-02T09:24:39.710Z,5.90
2019-01-02T09:27:16.794Z,5.95
2019-01-02T09:30:07.507Z,5.98
2019-01-02T09:32:53.179Z,5.93
2019-01-02T09:36:02.612Z,5.90
2019-01-02T09:39:08.781Z,5.98
2019-01-02T09:41:48.907Z,6.00
2019-01-02T09:44:52.012Z,6.13
2019-01-02T09:48:01.007Z,6.17
2019-01-02T09:50:41.061Z,6.16
2019-01-02T09:53:32.767Z,6.29
2019-01-02T09:56:44.495Z,6.28
2019-01-02T09:59:47.077Z,6.27
2019-01-02T10:02:35.858Z,6.32
2019-01-02T10:05:42.486Z,6.20
2019-01-02T10:08:43.693Z,6.13
2019-01-02T10:11:26.814Z,6.25
2019-01-02T10:14:37.353Z,6.44
2019-01-02T10:17:28.786Z,6.67
2019-01-02T10:20:11.839Z,6.63
2019-01-02T10:23:04.107Z,6.78
2019-01-02T10:26:01.866Z,7.06
2019-01-02T10:28:51.188Z,7.46
2019-01-02T10:31:37.731Z,7.50
2019-01-02T10:34:11.960Z,7.57
2019-01-02T10:36:55.159Z,7.49
2019-01-02T10:39:41.454Z,7.47
2019-01-02T10:42:30.016Z,7.43
2019-01-02T10:45:34.699Z,7.40
2019-01-02T10:48:08.997Z,7.54
2019-01-02T10:51:02.258Z,8.09
2019-01-02T10:53:51.096Z,8.02
2019-01-02T10:56:37.777Z,7.64
2019-01-02T10:59:23.784Z,7.70
2019-01-02T11:02:12.157Z,7.75
2019-01-02T11:05:24.124Z,7.80
2019-01-02T11:08:24.629Z,7.67
2019-01-02T11:11:14.194Z,7.43
2019-01-02T11:14:23.075Z,7.47
2019-01-02T11:17:15.118Z,7.42
2019-01-02T11:20:15.257Z,7.29
2019-01-02T11:23:09.252Z,7.28
2019-01-02T11:26:07.119Z,7.33
2019-01-02T11:29:04.713Z,7.27
2019-01-02T11:32:07.578Z,7.21
2019-01-02T11:34:50.297Z,7.55
2019-01-02T11:37:39.507Z,8.08
2019-01-02T11:40:50.360Z,8.08
2019-01-02T11:43:40.943Z,7.75
2019-01-02T11:46:11.132Z,7.32
2019-01-02T11:48:40.898Z,7.32
2019-01-02T11:51:10.689Z,7.52
2019-01-02T11:53:40.487Z,7.47
2019-01-02T11:56:10.507Z,7.33
2019-01-02T11:58:40.288Z,7.59
2019-01-02T12:01:10.064Z,7.81
2019-01-02T12:03:40.149Z,8.10
2019-01-02T12:06:09.905Z,7.90
2019-01-02T12:08:39.720Z,8.03
2019-01-02T12:11:09.553Z,7.98
2019-01-02T12:13:39.359Z,8.28
2019-01-02T12:16:09.167Z,8.53
2019-01-02T12:18:38.982Z,8.12
2019-01-02T12:21:08.811Z,7.79
2019-01-02T12:23:38.576Z,7.76
2019-01-02T12:26:08.402Z,7.86
2019-01-02T12:28:38.168Z,7.89
2019-01-02T12:31:07.945Z,7.98
2019-01-02T12:33:37.724Z,8.14
2019-01-02T12:36:07.559Z,8.31
2019-01-02T12:38:37.336Z,8.34
2019-01-02T12:41:07.116Z,7.92
2019-01-02T12:43:36.903Z,7.94
2019-01-02T12:46:06.669Z,7.91
2019-01-02T12:48:36.443Z,7.81
2019-01-02T12:51:06.248Z,7.73
2019-01-02T12:53:36.075Z,7.49
2019-01-02T12:56:05.876Z,7.43
2019-01-02T12:58:35.777Z,7.32
2019-01-02T13:01:05.649Z,7.48
2019-01-02T13:03:46.015Z,7.45
2019-01-02T13:06:36.899Z,7.57
2019-01-02T13:09:32.356Z,7.51
2019-01-02T13:12:20.634Z,7.38
2019-01-02T13:15:21.900Z,7.42
2019-01-02T13:18:20.545Z,7.54
2019-01-02T13:21:04.066Z,7.58
2019-01-02T13:23:50.323Z,7.75
2019-01-02T13:26:27.418Z,7.81
2019-01-02T13:29:18.073Z,7.70
2019-01-02T13:32:07.637Z,7.59
2019-01-02T13:35:07.643Z,7.30
2019-01-02T13:37:41.919Z,7.13
2019-01-02T13:40:25.123Z,7.04
2019-01-02T13:43:05.435Z,7.16
2019-01-02T13:45:42.621Z,7.52
2019-01-02T13:48:44.100Z,7.34
2019-01-02T13:51:14.901Z,7.28
2019-01-02T13:53:44.753Z,7.06
2019-01-02T13:56:17.315Z,7.32
2019-01-02T13:58:47.126Z,7.36
2019-01-02T14:01:16.950Z,7.64
2019-01-02T14:03:47.257Z,7.92
2019-01-02T14:06:17.046Z,7.97
2019-01-02T14:08:47.031Z,8.04
2019-01-02T14:11:16.825Z,7.78
2019-01-02T14:13:46.600Z,7.89
2019-01-02T14:16:16.388Z,7.87
2019-01-02T14:18:46.338Z,7.79
2019-01-02T14:21:16.117Z,7.84
2019-01-02T14:23:45.991Z,8.02
2019-01-02T14:26:15.764Z,7.88
2019-01-02T14:28:45.573Z,7.83
2019-01-02T14:31:15.348Z,7.74
2019-01-02T14:33:45.138Z,7.64
2019-01-02T14:36:14.927Z,7.61
2019-01-02T14:38:44.724Z,7.37
2019-01-02T14:41:14.712Z,7.33
2019-01-02T14:43:44.488Z,7.42
2019-01-02T14:46:14.290Z,7.20
2019-01-02T14:48:44.092Z,6.94
2019-01-02T14:51:13.906Z,6.94
2019-01-02T14:53:43.733Z,6.83
2019-01-02T14:56:13.553Z,6.77
2019-01-02T14:58:43.314Z,6.74
2019-01-02T15:01:13.088Z,6.41
2019-01-02T15:03:43.022Z,6.21
2019-01-02T15:06:12.780Z,6.10
2019-01-02T15:08:42.588Z,6.08
2019-01-02T15:11:12.394Z,5.81
2019-01-02T15:13:42.180Z,5.65
2019-01-02T15:16:11.997Z,5.40
2019-01-02T15:18:41.798Z,5.65
2019-01-02T15:21:11.571Z,5.72
2019-01-02T15:23:41.346Z,5.36
2019-01-02T15:26:11.152Z,5.22
2019-01-02T15:28:40.906Z,5.36
2019-01-02T15:31:10.907Z,5.28
2019-01-02T15:33:40.718Z,5.15
2019-01-02T15:36:10.524Z,5.27
2019-01-02T15:38:40.307Z,5.17
2019-01-02T15:41:10.094Z,4.96
2019-01-02T15:43:40.202Z,4.99
2019-01-02T15:46:11.303Z,4.97
2019-01-02T15:48:41.270Z,4.85
2019-01-02T15:51:11.052Z,4.72
2019-01-02T15:53:40.824Z,4.71
2019-01-02T15:56:10.606Z,4.50
2019-01-02T15:58:40.416Z,4.51
2019-01-02T16:01:10.186Z,4.60
2019-01-02T16:03:40.022Z,4.31
2019-01-02T16:06:09.835Z,4.27
2019-01-02T16:08:39.617Z,4.21
2019-01-02T16:11:09.403Z,4.42
2019-01-02T16:13:39.202Z,4.33
2019-01-02T16:16:09.172Z,4.24
2019-01-02T16:18:39.253Z,3.98
2019-01-02T16:21:09.076Z,3.71
2019-01-02T16:23:38.827Z,3.53
2019-01-02T16:26:08.586Z,3.36
2019-01-02T16:28:38.438Z,3.71
2019-01-02T16:31:08.646Z,3.75
2019-01-02T16:33:38.746Z,3.65
2019-01-02T16:36:08.511Z,3.44
2019-01-02T16:38:38.295Z,3.49
2019-01-02T16:41:08.173Z,3.30
2019-01-02T16:43:37.990Z,3.35
2019-01-02T16:46:07.878Z,3.46
2019-01-02T16:48:37.706Z,3.45
2019-01-02T16:51:07.489Z,3.30
2019-01-02T16:53:37.573Z,3.38
2019-01-02T16:56:07.335Z,3.61
2019-01-02T16:58:37.110Z,3.46
2019-01-02T17:01:06.870Z,3.39
2019-01-02T17:03:36.640Z,3.39
2019-01-02T17:06:06.397Z,3.26
2019-01-02T17:08:36.365Z,2.99
2019-01-02T17:11:06.134Z,3.07
2019-01-02T17:13:35.932Z,3.01
2019-01-02T17:16:05.712Z,2.71
2019-01-02T17:18:35.617Z,2.56
2019-01-02T17:21:05.479Z,2.41
2019-01-02T17:23:35.305Z,2.33
2019-01-02T17:26:05.260Z,2.21
2019-01-02T17:28:35.075Z,2.13
2019-01-02T17:31:04.869Z,2.12
2019-01-02T17:33:34.635Z,2.24
2019-01-02T17:36:04.775Z,2.20
2019-01-02T17:38:34.522Z,2.11
2019-01-02T17:41:04.277Z,1.99
2019-01-02T17:43:34.062Z,1.84
2019-01-02T17:46:03.876Z,1.67
2019-01-02T17:48:33.688Z,1.59
2019-01-02T17:51:03.477Z,1.60
2019-01-02T17:53:33.246Z,1.57
2019-01-02T17:56:03.016Z,1.63
2019-01-02T17:58:32.915Z,1.42
2019-01-02T18:01:02.717Z,1.49
2019-01-02T18:03:32.590Z,1.47
2019-01-02T18:06:02.401Z,1.39
2019-01-02T18:08:32.202Z,1.25
2019-01-02T18:11:01.999Z,1.07
2019-01-02T18:13:31.812Z,1.12
2019-01-02T18:16:01.606Z,0.94
2019-01-02T18:18:31.377Z,0.86
2019-01-02T18:21:01.178Z,0.78
2019-01-02T18:23:30.957Z,0.74
2019-01-02T18:26:00.755Z,0.77
2019-01-02T18:28:30.664Z,0.72
2019-01-02T18:31:00.485Z,0.69
2019-01-02T18:33:30.283Z,0.54
2019-01-02T18:36:00.079Z,0.66
2019-01-02T18:38:29.882Z,0.69
2019-01-02T18:40:59.658Z,0.67
2019-01-02T18:43:29.424Z,0.53
2019-01-02T18:45:59.335Z,0.58
2019-01-02T18:48:29.128Z,0.65
2019-01-02T18:50:58.886Z,0.79
2019-01-02T18:53:28.668Z,0.64
2019-01-02T18:55:58.862Z,0.62
2019-01-02T18:58:28.654Z,0.65
2019-01-02T19:00:59.423Z,0.70
2019-01-02T19:03:29.321Z,0.74
2019-01-02T19:05:59.148Z,0.82
2019-01-02T19:08:28.936Z,0.88
2019-01-02T19:11:00.244Z,0.78
2019-01-02T19:13:29.989Z,0.79
2019-01-02T19:15:59.768Z,0.79
2019-01-02T19:18:29.555Z,0.72
2019-01-02T19:20:59.334Z,0.71
2019-01-02T19:23:29.159Z,0.65
2019-01-02T19:26:00.933Z,0.66
2019-01-02T19:28:30.444Z,0.64
2019-01-02T19:31:00.255Z,0.75
2019-01-02T19:33:30.055Z,0.68
2019-01-02T19:35:59.822Z,0.67
2019-01-02T19:38:29.828Z,0.70
2019-01-02T19:41:00.742Z,0.64
2019-01-02T19:43:30.474Z,0.63
2019-01-02T19:46:00.389Z,0.68
2019-01-02T19:48:30.207Z,0.57
2019-01-02T19:51:00.028Z,0.58
2019-01-02T19:53:29.902Z,0.62
2019-01-02T19:55:59.728Z,0.69
2019-01-02T19:58:29.490Z,0.81
2019-01-02T20:00:59.315Z,0.98
2019-01-02T20:03:29.130Z,0.98
2019-01-02T20:05:58.972Z,1.07
2019-01-02T20:08:28.769Z,1.14
2019-01-02T20:10:58.578Z,1.26
2019-01-02T20:13:28.391Z,1.40
2019-01-02T20:16:01.499Z,1.49
2019-01-02T20:18:32.196Z,1.60
2019-01-02T20:21:04.107Z,1.64
2019-01-02T20:23:34.006Z,1.66
2019-01-02T20:26:03.757Z,1.68
2019-01-02T20:28:33.594Z,1.70
2019-01-02T20:31:03.361Z,1.72
2019-01-02T20:33:33.141Z,1.74
2019-01-02T20:36:02.929Z,1.76
2019-01-02T20:38:32.801Z,1.81
2019-01-02T20:41:02.686Z,1.80
2019-01-02T20:43:32.586Z,1.77
2019-01-02T20:46:02.415Z,1.74
2019-01-02T20:48:51.483Z,1.69
2019-01-02T20:51:21.279Z,1.69
2019-01-02T20:53:51.093Z,1.72
2019-01-02T20:56:20.900Z,1.76
2019-01-02T20:58:50.718Z,1.97
2019-01-02T21:01:23.114Z,2.23
2019-01-02T21:03:53.044Z,2.33
2019-01-02T21:06:22.834Z,2.51
2019-01-02T21:08:52.659Z,2.60
2019-01-02T21:11:22.499Z,2.65
2019-01-02T21:13:52.274Z,2.58
2019-01-02T21:16:22.182Z,2.45
2019-01-02T21:18:51.947Z,2.23
2019-01-02T21:21:21.912Z,1.96
2019-01-02T21:23:51.723Z,1.75
2019-01-02T21:26:21.482Z,1.51
2019-01-02T21:28:51.421Z,1.42
2019-01-02T21:31:21.306Z,1.50
2019-01-02T21:33:51.120Z,1.49
2019-01-02T21:36:20.968Z,1.50
2019-01-02T21:38:51.393Z,1.32
2019-01-02T21:41:21.164Z,1.07
2019-01-02T21:43:50.973Z,0.87
2019-01-02T21:46:20.863Z,0.83
2019-01-02T21:48:50.650Z,0.76
2019-01-02T21:51:20.454Z,0.83
2019-01-02T21:53:50.592Z,0.73
2019-01-02T21:56:20.476Z,0.57
2019-01-02T21:58:50.274Z,0.42
2019-01-02T22:01:20.083Z,0.28
2019-01-02T22:03:49.904Z,0.20
2019-01-02T22:06:19.702Z,0.09
2019-01-02T22:08:49.510Z,0.17
2019-01-02T22:11:19.643Z,-0.05
2019-01-02T22:13:49.445Z,-0.12
2019-01-02T22:16:19.269Z,-0.09
2019-01-02T22:18:49.140Z,-0.10
2019-01-02T22:21:18.940Z,-0.21
2019-01-02T22:23:48.726Z,-0.25
2019-01-02T22:26:18.555Z,-0.34
2019-01-02T22:28:48.369Z,-0.39
2019-01-02T22:31:18.163Z,-0.41
2019-01-02T22:33:47.959Z,-0.59
2019-01-02T22:36:17.762Z,-0.54
2019-01-02T22:38:47.675Z,-0.67
2019-01-02T22:41:19.128Z,-0.68
2019-01-02T22:43:48.919Z,-0.76
2019-01-02T22:46:18.758Z,-0.64
2019-01-02T22:48:48.567Z,-0.66
2019-01-02T22:51:18.378Z,-0.53
2019-01-02T22:53:48.194Z,-0.58
2019-01-02T22:56:17.978Z,-0.34
2019-01-02T22:58:47.880Z,-0.60
2019-01-02T23:01:19.309Z,-0.66
2019-01-02T23:03:53.730Z,-0.86
2019-01-02T23:06:28.015Z,-0.93
2019-01-02T23:09:15.639Z,-0.97
2019-01-02T23:11:45.601Z,-1.05
2019-01-02T23:14:16.989Z,-1.09
2019-01-02T23:16:52.493Z,-1.23
2019-01-02T23:19:23.881Z,-1.28
2019-01-02T23:22:07.089Z,-1.35
2019-01-02T23:24:38.454Z,-1.28
2019-01-02T23:27:09.821Z,-1.24
2019-01-02T23:29:57.307Z,-1.33
2019-01-02T23:32:45.016Z,-1.30
2019-01-02T23:35:18.958Z,-1.24
2019-01-02T23:37:53.152Z,-1.03
2019-01-02T23:40:30.371Z,-0.93
2019-01-02T23:43:18.382Z,-0.85
2019-01-02T23:46:05.988Z,-0.80
2019-01-02T23:48:55.721Z,-0.81
2019-01-02T23:51:29.913Z,-0.76
2019-01-02T23:54:01.290Z,-0.63
2019-01-02T23:56:38.861Z,-0.50
2019-01-02T23:59:10.198Z,-0.39
